sensor_id;sensor_type;location;lat;lon;timestamp;temperature;humidity
2012;DHT22;1009;51.436;6.972;2023-04-15T00:00:02;9.20;99.90
2012;DHT22;1009;51.436;6.972;2023-04-15T00:02:28;9.20;99.90
2012;DHT22;1009;51.436;6.972;2023-04-15T00:05:01;9.20;99.90
2012;DHT22;1009;51.436;6.972;2023-04-15T00:07:28;9.20;99.90
2012;DHT22;1009;51.436;6.972;2023-04-15T00:09:57;9.20;99.90
2012;DHT22;1009;51.436;6.972;2023-04-15T00:12:24;9.20;99.90
2012;DHT22;1009;51.436;6.972;2023-04-15T00:14:51;9.10;99.90
2012;DHT22;1009;51.436;6.972;2023-04-15T00:17:19;9.10;99.90
2012;DHT22;1009;51.436;6.972;2023-04-15T00:19:45;9.10;99.90
2012;DHT22;1009;51.436;6.972;2023-04-15T00:22:13;9.10;99.90
2012;DHT22;1009;51.436;6.972;2023-04-15T00:24:39;9.10;99.90
2012;DHT22;1009;51.436;6.972;2023-04-15T00:27:08;9.00;99.90
2012;DHT22;1009;51.436;6.972;2023-04-15T00:29:44;9.00;99.90
2012;DHT22;1009;51.436;6.972;2023-04-15T00:32:11;9.00;99.90
2012;DHT22;1009;51.436;6.972;2023-04-15T00:34:38;9.00;99.90
2012;DHT22;1009;51.436;6.972;2023-04-15T00:37:04;9.00;99.90
2012;DHT22;1009;51.436;6.972;2023-04-15T00:39:31;9.00;99.90
2012;DHT22;1009;51.436;6.972;2023-04-15T00:41:58;9.00;99.90
2012;DHT22;1009;51.436;6.972;2023-04-15T00:44:26;9.00;99.90
2012;DHT22;1009;51.436;6.972;2023-04-15T00:46:53;9.00;99.90
2012;DHT22;1009;51.436;6.972;2023-04-15T00:49:20;9.00;99.90
2012;DHT22;1009;51.436;6.972;2023-04-15T00:51:48;9.00;99.90
2012;DHT22;1009;51.436;6.972;2023-04-15T00:54:15;9.00;99.90
2012;DHT22;1009;51.436;6.972;2023-04-15T00:56:42;8.90;99.90
2012;DHT22;1009;51.436;6.972;2023-04-15T00:59:09;8.80;99.90
2012;DHT22;1009;51.436;6.972;2023-04-15T01:01:37;8.50;99.90
2012;DHT22;1009;51.436;6.972;2023-04-15T01:04:04;8.40;99.90
2012;DHT22;1009;51.436;6.972;2023-04-15T01:06:34;8.20;99.90
2012;DHT22;1009;51.436;6.972;2023-04-15T01:09:03;8.20;99.90
2012;DHT22;1009;51.436;6.972;2023-04-15T01:11:31;8.30;99.90
2012;DHT22;1009;51.436;6.972;2023-04-15T01:13:59;8.30;99.90
2012;DHT22;1009;51.436;6.972;2023-04-15T01:16:26;8.30;99.90
2012;DHT22;1009;51.436;6.972;2023-04-15T01:18:54;8.20;99.90
2012;DHT22;1009;51.436;6.972;2023-04-15T01:21:22;8.10;99.90
2012;DHT22;1009;51.436;6.972;2023-04-15T01:23:50;8.20;99.90
2012;DHT22;1009;51.436;6.972;2023-04-15T01:26:21;8.20;99.90
2012;DHT22;1009;51.436;6.972;2023-04-15T01:28:48;8.20;99.90
2012;DHT22;1009;51.436;6.972;2023-04-15T01:31:15;8.10;99.90
2012;DHT22;1009;51.436;6.972;2023-04-15T01:33:42;8.20;99.90
2012;DHT22;1009;51.436;6.972;2023-04-15T01:36:09;8.20;99.90
2012;DHT22;1009;51.436;6.972;2023-04-15T01:38:37;8.20;99.90
2012;DHT22;1009;51.436;6.972;2023-04-15T01:41:04;8.20;99.90
2012;DHT22;1009;51.436;6.972;2023-04-15T01:43:33;8.20;99.90
2012;DHT22;1009;51.436;6.972;2023-04-15T01:46:04;8.30;99.90
2012;DHT22;1009;51.436;6.972;2023-04-15T01:48:31;8.30;99.90
2012;DHT22;1009;51.436;6.972;2023-04-15T01:50:58;8.40;99.90
2012;DHT22;1009;51.436;6.972;2023-04-15T01:53:25;8.30;99.90
2012;DHT22;1009;51.436;6.972;2023-04-15T01:55:52;8.30;99.90
2012;DHT22;1009;51.436;6.972;2023-04-15T01:58:19;8.30;99.90
2012;DHT22;1009;51.436;6.972;2023-04-15T02:00:48;8.30;99.90
2012;DHT22;1009;51.436;6.972;2023-04-15T02:03:21;8.20;99.90
2012;DHT22;1009;51.436;6.972;2023-04-15T02:05:48;8.20;99.90
2012;DHT22;1009;51.436;6.972;2023-04-15T02:08:15;8.20;99.90
2012;DHT22;1009;51.436;6.972;2023-04-15T02:10:42;8.30;99.90
2012;DHT22;1009;51.436;6.972;2023-04-15T02:13:08;8.30;99.90
2012;DHT22;1009;51.436;6.972;2023-04-15T02:15:35;8.20;99.90
2012;DHT22;1009;51.436;6.972;2023-04-15T02:18:03;8.20;99.90
2012;DHT22;1009;51.436;6.972;2023-04-15T02:20:31;8.10;99.90
2012;DHT22;1009;51.436;6.972;2023-04-15T02:23:01;8.10;99.90
2012;DHT22;1009;51.436;6.972;2023-04-15T02:25:33;8.10;99.90
2012;DHT22;1009;51.436;6.972;2023-04-15T02:28:05;8.20;99.90
2012;DHT22;1009;51.436;6.972;2023-04-15T02:30:35;8.20;99.90
2012;DHT22;1009;51.436;6.972;2023-04-15T02:33:03;8.20;99.90
2012;DHT22;1009;51.436;6.972;2023-04-15T02:35:29;8.10;99.90
2012;DHT22;1009;51.436;6.972;2023-04-15T02:37:56;8.10;99.90
2012;DHT22;1009;51.436;6.972;2023-04-15T02:40:23;8.00;99.90
2012;DHT22;1009;51.436;6.972;2023-04-15T02:42:50;8.00;99.90
2012;DHT22;1009;51.436;6.972;2023-04-15T02:45:17;7.90;99.90
2012;DHT22;1009;51.436;6.972;2023-04-15T02:47:48;7.80;99.90
2012;DHT22;1009;51.436;6.972;2023-04-15T02:50:16;7.80;99.90
2012;DHT22;1009;51.436;6.972;2023-04-15T02:52:43;7.70;99.90
2012;DHT22;1009;51.436;6.972;2023-04-15T02:55:10;7.70;99.90
2012;DHT22;1009;51.436;6.972;2023-04-15T02:57:37;7.70;99.90
2012;DHT22;1009;51.436;6.972;2023-04-15T03:00:06;7.80;99.90
2012;DHT22;1009;51.436;6.972;2023-04-15T03:02:36;7.80;99.90
2012;DHT22;1009;51.436;6.972;2023-04-15T03:05:04;7.80;99.90
2012;DHT22;1009;51.436;6.972;2023-04-15T03:07:32;7.70;99.90
2012;DHT22;1009;51.436;6.972;2023-04-15T03:09:59;7.70;99.90
2012;DHT22;1009;51.436;6.972;2023-04-15T03:12:26;7.70;99.90
2012;DHT22;1009;51.436;6.972;2023-04-15T03:14:53;7.70;99.90
2012;DHT22;1009;51.436;6.972;2023-04-15T03:17:20;7.70;99.90
2012;DHT22;1009;51.436;6.972;2023-04-15T03:19:47;7.70;99.90
2012;DHT22;1009;51.436;6.972;2023-04-15T03:22:13;7.60;99.90
2012;DHT22;1009;51.436;6.972;2023-04-15T03:24:41;7.70;99.90
2012;DHT22;1009;51.436;6.972;2023-04-15T03:27:08;7.70;99.90
2012;DHT22;1009;51.436;6.972;2023-04-15T03:29:38;7.80;99.90
2012;DHT22;1009;51.436;6.972;2023-04-15T03:32:11;7.80;99.90
2012;DHT22;1009;51.436;6.972;2023-04-15T03:34:41;7.70;99.90
2012;DHT22;1009;51.436;6.972;2023-04-15T03:37:08;7.70;99.90
2012;DHT22;1009;51.436;6.972;2023-04-15T03:39:34;7.70;99.90
2012;DHT22;1009;51.436;6.972;2023-04-15T03:42:03;7.80;99.90
2012;DHT22;1009;51.436;6.972;2023-04-15T03:44:29;7.80;99.90
2012;DHT22;1009;51.436;6.972;2023-04-15T03:46:57;7.80;99.90
2012;DHT22;1009;51.436;6.972;2023-04-15T03:49:24;7.80;99.90
2012;DHT22;1009;51.436;6.972;2023-04-15T03:51:50;7.70;99.90
2012;DHT22;1009;51.436;6.972;2023-04-15T03:54:17;7.70;99.90
2012;DHT22;1009;51.436;6.972;2023-04-15T03:56:44;7.70;99.90
2012;DHT22;1009;51.436;6.972;2023-04-15T03:59:12;7.60;99.90
2012;DHT22;1009;51.436;6.972;2023-04-15T04:01:39;7.60;99.90
2012;DHT22;1009;51.436;6.972;2023-04-15T04:04:05;7.60;99.90
2012;DHT22;1009;51.436;6.972;2023-04-15T04:06:32;7.60;99.90
2012;DHT22;1009;51.436;6.972;2023-04-15T04:08:59;7.60;99.90
2012;DHT22;1009;51.436;6.972;2023-04-15T04:11:32;7.60;99.90
2012;DHT22;1009;51.436;6.972;2023-04-15T04:13:59;7.60;99.90
2012;DHT22;1009;51.436;6.972;2023-04-15T04:16:27;7.50;99.90
2012;DHT22;1009;51.436;6.972;2023-04-15T04:18:53;7.40;99.90
2012;DHT22;1009;51.436;6.972;2023-04-15T04:21:20;7.50;99.90
2012;DHT22;1009;51.436;6.972;2023-04-15T04:23:50;7.50;99.90
2012;DHT22;1009;51.436;6.972;2023-04-15T04:26:17;7.50;99.90
2012;DHT22;1009;51.436;6.972;2023-04-15T04:28:44;7.60;99.90
2012;DHT22;1009;51.436;6.972;2023-04-15T04:31:11;7.50;99.90
2012;DHT22;1009;51.436;6.972;2023-04-15T04:33:39;7.50;99.90
2012;DHT22;1009;51.436;6.972;2023-04-15T04:36:06;7.50;99.90
2012;DHT22;1009;51.436;6.972;2023-04-15T04:38:33;7.50;99.90
2012;DHT22;1009;51.436;6.972;2023-04-15T04:40:59;7.50;99.90
2012;DHT22;1009;51.436;6.972;2023-04-15T04:43:26;7.40;99.90
2012;DHT22;1009;51.436;6.972;2023-04-15T04:45:53;7.50;99.90
2012;DHT22;1009;51.436;6.972;2023-04-15T04:48:23;7.50;99.90
2012;DHT22;1009;51.436;6.972;2023-04-15T04:50:51;7.50;99.90
2012;DHT22;1009;51.436;6.972;2023-04-15T04:53:18;7.40;99.90
2012;DHT22;1009;51.436;6.972;2023-04-15T04:55:45;7.40;99.90
2012;DHT22;1009;51.436;6.972;2023-04-15T04:58:12;7.40;99.90
2012;DHT22;1009;51.436;6.972;2023-04-15T05:00:39;7.40;99.90
2012;DHT22;1009;51.436;6.972;2023-04-15T05:03:06;7.40;99.90
2012;DHT22;1009;51.436;6.972;2023-04-15T05:05:33;7.40;99.90
2012;DHT22;1009;51.436;6.972;2023-04-15T05:08:03;7.40;99.90
2012;DHT22;1009;51.436;6.972;2023-04-15T05:10:30;7.40;99.90
2012;DHT22;1009;51.436;6.972;2023-04-15T05:12:57;7.40;99.90
2012;DHT22;1009;51.436;6.972;2023-04-15T05:15:23;7.40;99.90
2012;DHT22;1009;51.436;6.972;2023-04-15T05:17:50;7.40;99.90
2012;DHT22;1009;51.436;6.972;2023-04-15T05:20:17;7.40;99.90
2012;DHT22;1009;51.436;6.972;2023-04-15T05:22:44;7.40;99.90
2012;DHT22;1009;51.436;6.972;2023-04-15T05:25:12;7.30;99.90
2012;DHT22;1009;51.436;6.972;2023-04-15T05:27:39;7.30;99.90
2012;DHT22;1009;51.436;6.972;2023-04-15T05:30:06;7.30;99.90
2012;DHT22;1009;51.436;6.972;2023-04-15T05:32:34;7.40;99.90
2012;DHT22;1009;51.436;6.972;2023-04-15T05:35:03;7.40;99.90
2012;DHT22;1009;51.436;6.972;2023-04-15T05:37:31;7.40;99.90
2012;DHT22;1009;51.436;6.972;2023-04-15T05:39:57;7.40;99.90
2012;DHT22;1009;51.436;6.972;2023-04-15T05:42:25;7.40;99.90
2012;DHT22;1009;51.436;6.972;2023-04-15T05:44:52;7.40;99.90
2012;DHT22;1009;51.436;6.972;2023-04-15T05:47:19;7.40;99.90
2012;DHT22;1009;51.436;6.972;2023-04-15T05:49:46;7.40;99.90
2012;DHT22;1009;51.436;6.972;2023-04-15T05:52:12;7.40;99.90
2012;DHT22;1009;51.436;6.972;2023-04-15T05:54:39;7.40;99.90
2012;DHT22;1009;51.436;6.972;2023-04-15T05:57:06;7.50;99.90
2012;DHT22;1009;51.436;6.972;2023-04-15T05:59:34;7.50;99.90
2012;DHT22;1009;51.436;6.972;2023-04-15T06:02:01;7.50;99.90
2012;DHT22;1009;51.436;6.972;2023-04-15T06:04:28;7.60;99.90
2012;DHT22;1009;51.436;6.972;2023-04-15T06:06:54;7.70;99.90
2012;DHT22;1009;51.436;6.972;2023-04-15T06:09:21;7.80;99.90
2012;DHT22;1009;51.436;6.972;2023-04-15T06:11:48;7.90;99.90
2012;DHT22;1009;51.436;6.972;2023-04-15T06:14:15;7.90;99.90
2012;DHT22;1009;51.436;6.972;2023-04-15T06:16:43;8.00;99.90
2012;DHT22;1009;51.436;6.972;2023-04-15T06:19:09;8.20;99.90
2012;DHT22;1009;51.436;6.972;2023-04-15T06:21:46;8.20;99.90
2012;DHT22;1009;51.436;6.972;2023-04-15T06:24:12;8.20;99.90
2012;DHT22;1009;51.436;6.972;2023-04-15T06:26:42;8.30;99.90
2012;DHT22;1009;51.436;6.972;2023-04-15T06:29:09;8.40;99.90
2012;DHT22;1009;51.436;6.972;2023-04-15T06:31:36;8.50;99.90
2012;DHT22;1009;51.436;6.972;2023-04-15T06:34:04;8.40;99.90
2012;DHT22;1009;51.436;6.972;2023-04-15T06:36:30;8.60;99.90
2012;DHT22;1009;51.436;6.972;2023-04-15T06:38:57;8.70;99.90
2012;DHT22;1009;51.436;6.972;2023-04-15T06:41:24;8.70;99.90
2012;DHT22;1009;51.436;6.972;2023-04-15T06:43:51;8.80;99.90
2012;DHT22;1009;51.436;6.972;2023-04-15T06:46:18;8.90;99.90
2012;DHT22;1009;51.436;6.972;2023-04-15T06:48:44;8.90;99.90
2012;DHT22;1009;51.436;6.972;2023-04-15T06:51:13;8.80;99.90
2012;DHT22;1009;51.436;6.972;2023-04-15T06:53:39;8.70;99.90
2012;DHT22;1009;51.436;6.972;2023-04-15T06:56:08;8.70;99.90
2012;DHT22;1009;51.436;6.972;2023-04-15T06:58:35;8.60;99.90
2012;DHT22;1009;51.436;6.972;2023-04-15T07:01:03;8.70;99.90
2012;DHT22;1009;51.436;6.972;2023-04-15T07:03:30;8.80;99.90
2012;DHT22;1009;51.436;6.972;2023-04-15T07:05:57;8.90;99.90
2012;DHT22;1009;51.436;6.972;2023-04-15T07:08:28;8.90;99.90
2012;DHT22;1009;51.436;6.972;2023-04-15T07:10:58;8.90;99.90
2012;DHT22;1009;51.436;6.972;2023-04-15T07:13:25;8.90;99.90
2012;DHT22;1009;51.436;6.972;2023-04-15T07:15:51;9.00;99.90
2012;DHT22;1009;51.436;6.972;2023-04-15T07:18:18;9.00;99.90
2012;DHT22;1009;51.436;6.972;2023-04-15T07:20:45;9.10;99.90
2012;DHT22;1009;51.436;6.972;2023-04-15T07:23:12;9.10;99.90
2012;DHT22;1009;51.436;6.972;2023-04-15T07:25:40;9.30;99.90
2012;DHT22;1009;51.436;6.972;2023-04-15T07:28:07;9.40;99.90
2012;DHT22;1009;51.436;6.972;2023-04-15T07:30:33;9.50;99.90
2012;DHT22;1009;51.436;6.972;2023-04-15T07:33:00;9.50;99.90
2012;DHT22;1009;51.436;6.972;2023-04-15T07:35:28;9.70;99.90
2012;DHT22;1009;51.436;6.972;2023-04-15T07:37:54;9.60;99.90
2012;DHT22;1009;51.436;6.972;2023-04-15T07:40:22;9.60;99.90
2012;DHT22;1009;51.436;6.972;2023-04-15T07:42:50;9.80;99.90
2012;DHT22;1009;51.436;6.972;2023-04-15T07:45:16;9.80;99.90
2012;DHT22;1009;51.436;6.972;2023-04-15T07:47:43;9.70;99.90
2012;DHT22;1009;51.436;6.972;2023-04-15T07:50:10;9.50;99.90
2012;DHT22;1009;51.436;6.972;2023-04-15T07:52:40;9.40;99.90
2012;DHT22;1009;51.436;6.972;2023-04-15T07:55:08;9.30;99.90
2012;DHT22;1009;51.436;6.972;2023-04-15T07:57:35;9.40;99.90
2012;DHT22;1009;51.436;6.972;2023-04-15T08:00:05;9.40;99.90
2012;DHT22;1009;51.436;6.972;2023-04-15T08:02:32;9.30;99.90
2012;DHT22;1009;51.436;6.972;2023-04-15T08:05:02;9.50;99.90
2012;DHT22;1009;51.436;6.972;2023-04-15T08:07:29;9.80;99.90
2012;DHT22;1009;51.436;6.972;2023-04-15T08:09:57;10.00;99.90
2012;DHT22;1009;51.436;6.972;2023-04-15T08:12:23;10.10;99.90
2012;DHT22;1009;51.436;6.972;2023-04-15T08:14:50;10.30;99.90
2012;DHT22;1009;51.436;6.972;2023-04-15T08:17:18;10.40;99.90
2012;DHT22;1009;51.436;6.972;2023-04-15T08:19:45;10.30;99.90
2012;DHT22;1009;51.436;6.972;2023-04-15T08:22:12;10.40;99.90
2012;DHT22;1009;51.436;6.972;2023-04-15T08:24:39;10.50;99.90
2012;DHT22;1009;51.436;6.972;2023-04-15T08:27:06;10.40;99.90
2012;DHT22;1009;51.436;6.972;2023-04-15T08:29:36;10.30;99.90
2012;DHT22;1009;51.436;6.972;2023-04-15T08:32:03;10.20;99.90
2012;DHT22;1009;51.436;6.972;2023-04-15T08:34:31;10.20;99.90
2012;DHT22;1009;51.436;6.972;2023-04-15T08:36:59;10.40;99.90
2012;DHT22;1009;51.436;6.972;2023-04-15T08:39:26;10.60;99.90
2012;DHT22;1009;51.436;6.972;2023-04-15T08:41:58;10.60;99.90
2012;DHT22;1009;51.436;6.972;2023-04-15T08:44:28;10.70;99.90
2012;DHT22;1009;51.436;6.972;2023-04-15T08:46:56;10.70;99.90
2012;DHT22;1009;51.436;6.972;2023-04-15T08:49:26;10.60;99.90
2012;DHT22;1009;51.436;6.972;2023-04-15T08:51:57;10.60;99.90
2012;DHT22;1009;51.436;6.972;2023-04-15T08:54:24;10.50;99.90
2012;DHT22;1009;51.436;6.972;2023-04-15T08:56:52;10.80;99.90
2012;DHT22;1009;51.436;6.972;2023-04-15T08:59:19;11.00;99.90
2012;DHT22;1009;51.436;6.972;2023-04-15T09:01:47;11.00;99.90
2012;DHT22;1009;51.436;6.972;2023-04-15T09:04:15;10.80;99.90
2012;DHT22;1009;51.436;6.972;2023-04-15T09:06:42;10.90;99.90
2012;DHT22;1009;51.436;6.972;2023-04-15T09:09:11;11.00;99.90
2012;DHT22;1009;51.436;6.972;2023-04-15T09:11:38;11.00;99.90
2012;DHT22;1009;51.436;6.972;2023-04-15T09:14:05;11.00;99.90
2012;DHT22;1009;51.436;6.972;2023-04-15T09:16:55;11.00;99.90
2012;DHT22;1009;51.436;6.972;2023-04-15T09:19:22;11.10;99.90
2012;DHT22;1009;51.436;6.972;2023-04-15T09:21:50;11.40;99.90
2012;DHT22;1009;51.436;6.972;2023-04-15T09:24:18;11.50;99.90
2012;DHT22;1009;51.436;6.972;2023-04-15T09:26:52;11.30;99.90
2012;DHT22;1009;51.436;6.972;2023-04-15T09:29:20;11.20;99.90
2012;DHT22;1009;51.436;6.972;2023-04-15T09:31:49;11.40;99.90
2012;DHT22;1009;51.436;6.972;2023-04-15T09:34:17;11.50;99.90
2012;DHT22;1009;51.436;6.972;2023-04-15T09:36:56;11.40;99.90
2012;DHT22;1009;51.436;6.972;2023-04-15T09:39:24;11.60;99.90
2012;DHT22;1009;51.436;6.972;2023-04-15T09:42:04;11.50;99.90
2012;DHT22;1009;51.436;6.972;2023-04-15T09:44:32;11.70;99.90
2012;DHT22;1009;51.436;6.972;2023-04-15T09:46:59;11.70;99.90
2012;DHT22;1009;51.436;6.972;2023-04-15T09:49:26;11.40;99.90
2012;DHT22;1009;51.436;6.972;2023-04-15T09:51:57;11.20;99.90
2012;DHT22;1009;51.436;6.972;2023-04-15T09:54:32;11.00;99.90
2012;DHT22;1009;51.436;6.972;2023-04-15T09:57:04;10.80;99.90
2012;DHT22;1009;51.436;6.972;2023-04-15T09:59:31;10.90;99.90
2012;DHT22;1009;51.436;6.972;2023-04-15T10:01:57;10.90;99.90
2012;DHT22;1009;51.436;6.972;2023-04-15T10:04:26;10.90;99.90
2012;DHT22;1009;51.436;6.972;2023-04-15T10:06:54;10.90;99.90
2012;DHT22;1009;51.436;6.972;2023-04-15T10:09:21;10.90;99.90
2012;DHT22;1009;51.436;6.972;2023-04-15T10:11:49;11.00;99.90
2012;DHT22;1009;51.436;6.972;2023-04-15T10:14:18;10.90;99.90
2012;DHT22;1009;51.436;6.972;2023-04-15T10:16:46;10.90;99.90
2012;DHT22;1009;51.436;6.972;2023-04-15T10:19:14;11.00;99.90
2012;DHT22;1009;51.436;6.972;2023-04-15T10:21:44;11.00;99.90
2012;DHT22;1009;51.436;6.972;2023-04-15T10:24:12;10.90;99.90
2012;DHT22;1009;51.436;6.972;2023-04-15T10:26:39;10.80;99.90
2012;DHT22;1009;51.436;6.972;2023-04-15T10:29:08;10.80;99.90
2012;DHT22;1009;51.436;6.972;2023-04-15T10:31:36;10.70;99.90
2012;DHT22;1009;51.436;6.972;2023-04-15T10:34:04;10.70;99.90
2012;DHT22;1009;51.436;6.972;2023-04-15T10:36:32;10.60;99.90
2012;DHT22;1009;51.436;6.972;2023-04-15T10:38:58;10.40;99.90
2012;DHT22;1009;51.436;6.972;2023-04-15T10:41:26;10.50;99.90
2012;DHT22;1009;51.436;6.972;2023-04-15T10:44:00;10.50;99.90
2012;DHT22;1009;51.436;6.972;2023-04-15T10:46:36;10.60;99.90
2012;DHT22;1009;51.436;6.972;2023-04-15T10:49:08;10.70;99.90
2012;DHT22;1009;51.436;6.972;2023-04-15T10:51:37;10.70;99.90
2012;DHT22;1009;51.436;6.972;2023-04-15T10:54:11;10.70;99.90
2012;DHT22;1009;51.436;6.972;2023-04-15T10:56:40;10.70;99.90
2012;DHT22;1009;51.436;6.972;2023-04-15T10:59:08;10.70;99.90
2012;DHT22;1009;51.436;6.972;2023-04-15T11:01:51;10.70;99.90
2012;DHT22;1009;51.436;6.972;2023-04-15T11:04:52;10.50;99.90
2012;DHT22;1009;51.436;6.972;2023-04-15T11:07:39;10.50;99.90
2012;DHT22;1009;51.436;6.972;2023-04-15T11:13:19;10.60;99.90
2012;DHT22;1009;51.436;6.972;2023-04-15T11:15:48;10.60;99.90
2012;DHT22;1009;51.436;6.972;2023-04-15T11:18:17;10.60;99.90
2012;DHT22;1009;51.436;6.972;2023-04-15T11:20:45;10.70;99.90
2012;DHT22;1009;51.436;6.972;2023-04-15T11:23:14;10.60;99.90
2012;DHT22;1009;51.436;6.972;2023-04-15T11:25:42;10.70;99.90
2012;DHT22;1009;51.436;6.972;2023-04-15T11:28:09;10.70;99.90
2012;DHT22;1009;51.436;6.972;2023-04-15T11:30:37;10.70;99.90
2012;DHT22;1009;51.436;6.972;2023-04-15T11:33:05;10.70;99.90
2012;DHT22;1009;51.436;6.972;2023-04-15T11:35:35;10.70;99.90
2012;DHT22;1009;51.436;6.972;2023-04-15T11:38:09;10.60;99.90
2012;DHT22;1009;51.436;6.972;2023-04-15T11:40:36;10.50;99.90
2012;DHT22;1009;51.436;6.972;2023-04-15T11:43:04;10.50;99.90
2012;DHT22;1009;51.436;6.972;2023-04-15T11:45:31;10.50;99.90
2012;DHT22;1009;51.436;6.972;2023-04-15T11:48:04;10.50;99.90
2012;DHT22;1009;51.436;6.972;2023-04-15T11:50:32;10.50;99.90
2012;DHT22;1009;51.436;6.972;2023-04-15T11:53:01;10.50;99.90
2012;DHT22;1009;51.436;6.972;2023-04-15T11:55:29;10.40;99.90
2012;DHT22;1009;51.436;6.972;2023-04-15T11:58:08;10.40;99.90
2012;DHT22;1009;51.436;6.972;2023-04-15T12:00:36;10.40;99.90
2012;DHT22;1009;51.436;6.972;2023-04-15T12:03:16;10.40;99.90
2012;DHT22;1009;51.436;6.972;2023-04-15T12:06:11;10.30;99.90
2012;DHT22;1009;51.436;6.972;2023-04-15T12:09:09;10.30;99.90
2012;DHT22;1009;51.436;6.972;2023-04-15T12:11:42;10.30;99.90
2012;DHT22;1009;51.436;6.972;2023-04-15T12:14:11;10.20;99.90
2012;DHT22;1009;51.436;6.972;2023-04-15T12:16:40;10.10;99.90
2012;DHT22;1009;51.436;6.972;2023-04-15T12:19:09;10.20;99.90
2012;DHT22;1009;51.436;6.972;2023-04-15T12:21:37;10.10;99.90
2012;DHT22;1009;51.436;6.972;2023-04-15T12:24:06;10.10;99.90
2012;DHT22;1009;51.436;6.972;2023-04-15T12:26:36;10.00;99.90
2012;DHT22;1009;51.436;6.972;2023-04-15T12:29:05;9.90;99.90
2012;DHT22;1009;51.436;6.972;2023-04-15T12:31:32;9.90;99.90
2012;DHT22;1009;51.436;6.972;2023-04-15T12:34:00;9.90;99.90
2012;DHT22;1009;51.436;6.972;2023-04-15T12:36:27;9.90;99.90
2012;DHT22;1009;51.436;6.972;2023-04-15T12:38:54;9.90;99.90
2012;DHT22;1009;51.436;6.972;2023-04-15T12:41:21;9.90;99.90
2012;DHT22;1009;51.436;6.972;2023-04-15T12:43:50;10.00;99.90
2012;DHT22;1009;51.436;6.972;2023-04-15T12:46:16;9.90;99.90
2012;DHT22;1009;51.436;6.972;2023-04-15T12:48:43;9.90;99.90
2012;DHT22;1009;51.436;6.972;2023-04-15T12:51:10;9.90;99.90
2012;DHT22;1009;51.436;6.972;2023-04-15T12:53:37;9.90;99.90
2012;DHT22;1009;51.436;6.972;2023-04-15T12:56:04;9.90;99.90
2012;DHT22;1009;51.436;6.972;2023-04-15T12:58:32;9.90;99.90
2012;DHT22;1009;51.436;6.972;2023-04-15T13:01:00;10.00;99.90
2012;DHT22;1009;51.436;6.972;2023-04-15T13:03:27;10.00;99.90
2012;DHT22;1009;51.436;6.972;2023-04-15T13:05:53;10.10;99.90
2012;DHT22;1009;51.436;6.972;2023-04-15T13:08:22;10.10;99.90
2012;DHT22;1009;51.436;6.972;2023-04-15T13:10:49;10.20;99.90
2012;DHT22;1009;51.436;6.972;2023-04-15T13:13:16;10.20;99.90
2012;DHT22;1009;51.436;6.972;2023-04-15T13:15:42;10.30;99.90
2012;DHT22;1009;51.436;6.972;2023-04-15T13:18:11;10.20;99.90
2012;DHT22;1009;51.436;6.972;2023-04-15T13:20:38;10.30;99.90
2012;DHT22;1009;51.436;6.972;2023-04-15T13:23:05;10.30;99.90
2012;DHT22;1009;51.436;6.972;2023-04-15T13:25:32;10.40;99.90
2012;DHT22;1009;51.436;6.972;2023-04-15T13:27:58;10.40;99.90
2012;DHT22;1009;51.436;6.972;2023-04-15T13:30:25;10.40;99.90
2012;DHT22;1009;51.436;6.972;2023-04-15T13:32:53;10.40;99.90
2012;DHT22;1009;51.436;6.972;2023-04-15T13:35:21;10.40;99.90
2012;DHT22;1009;51.436;6.972;2023-04-15T13:37:47;10.30;99.90
2012;DHT22;1009;51.436;6.972;2023-04-15T13:40:14;10.30;99.90
2012;DHT22;1009;51.436;6.972;2023-04-15T13:42:41;10.30;99.90
2012;DHT22;1009;51.436;6.972;2023-04-15T13:45:09;10.30;99.90
2012;DHT22;1009;51.436;6.972;2023-04-15T13:47:36;10.20;99.90
2012;DHT22;1009;51.436;6.972;2023-04-15T13:50:03;10.20;99.90
2012;DHT22;1009;51.436;6.972;2023-04-15T13:52:31;10.20;99.90
2012;DHT22;1009;51.436;6.972;2023-04-15T13:54:58;10.30;99.90
2012;DHT22;1009;51.436;6.972;2023-04-15T13:57:24;10.30;99.90
2012;DHT22;1009;51.436;6.972;2023-04-15T13:59:51;10.30;99.90
2012;DHT22;1009;51.436;6.972;2023-04-15T14:02:20;10.20;99.90
2012;DHT22;1009;51.436;6.972;2023-04-15T14:04:48;10.10;99.90
2012;DHT22;1009;51.436;6.972;2023-04-15T14:07:21;10.00;99.90
2012;DHT22;1009;51.436;6.972;2023-04-15T14:09:49;10.00;99.90
2012;DHT22;1009;51.436;6.972;2023-04-15T14:12:15;10.00;99.90
2012;DHT22;1009;51.436;6.972;2023-04-15T14:14:43;10.10;99.90
2012;DHT22;1009;51.436;6.972;2023-04-15T14:17:10;10.00;99.90
2012;DHT22;1009;51.436;6.972;2023-04-15T14:19:37;10.00;99.90
2012;DHT22;1009;51.436;6.972;2023-04-15T14:22:03;10.00;99.90
2012;DHT22;1009;51.436;6.972;2023-04-15T14:24:30;10.00;99.90
2012;DHT22;1009;51.436;6.972;2023-04-15T14:26:58;10.10;99.90
2012;DHT22;1009;51.436;6.972;2023-04-15T14:29:26;10.10;99.90
2012;DHT22;1009;51.436;6.972;2023-04-15T14:31:53;10.10;99.90
2012;DHT22;1009;51.436;6.972;2023-04-15T14:34:21;10.00;99.90
2012;DHT22;1009;51.436;6.972;2023-04-15T14:36:49;10.00;99.90
2012;DHT22;1009;51.436;6.972;2023-04-15T14:39:16;10.00;99.90
2012;DHT22;1009;51.436;6.972;2023-04-15T14:41:43;9.90;99.90
2012;DHT22;1009;51.436;6.972;2023-04-15T14:44:11;9.80;99.90
2012;DHT22;1009;51.436;6.972;2023-04-15T14:46:39;9.80;99.90
2012;DHT22;1009;51.436;6.972;2023-04-15T14:49:06;9.80;99.90
2012;DHT22;1009;51.436;6.972;2023-04-15T14:51:33;9.70;99.90
2012;DHT22;1009;51.436;6.972;2023-04-15T14:54:06;9.70;99.90
2012;DHT22;1009;51.436;6.972;2023-04-15T14:56:32;9.60;99.90
2012;DHT22;1009;51.436;6.972;2023-04-15T14:58:59;9.50;99.90
2012;DHT22;1009;51.436;6.972;2023-04-15T15:01:27;9.60;99.90
2012;DHT22;1009;51.436;6.972;2023-04-15T15:03:55;9.60;99.90
2012;DHT22;1009;51.436;6.972;2023-04-15T15:06:22;9.70;99.90
2012;DHT22;1009;51.436;6.972;2023-04-15T15:08:48;9.70;99.90
2012;DHT22;1009;51.436;6.972;2023-04-15T15:11:15;9.70;99.90
2012;DHT22;1009;51.436;6.972;2023-04-15T15:13:42;9.70;99.90
2012;DHT22;1009;51.436;6.972;2023-04-15T15:16:09;9.60;99.90
2012;DHT22;1009;51.436;6.972;2023-04-15T15:18:37;9.50;99.90
2012;DHT22;1009;51.436;6.972;2023-04-15T15:21:04;9.50;99.90
2012;DHT22;1009;51.436;6.972;2023-04-15T15:23:30;9.50;99.90
2012;DHT22;1009;51.436;6.972;2023-04-15T15:25:57;9.50;99.90
2012;DHT22;1009;51.436;6.972;2023-04-15T15:28:24;9.50;99.90
2012;DHT22;1009;51.436;6.972;2023-04-15T15:30:51;9.50;99.90
2012;DHT22;1009;51.436;6.972;2023-04-15T15:33:17;9.40;99.90
2012;DHT22;1009;51.436;6.972;2023-04-15T15:35:46;9.40;99.90
2012;DHT22;1009;51.436;6.972;2023-04-15T15:38:13;9.40;99.90
2012;DHT22;1009;51.436;6.972;2023-04-15T15:40:40;9.30;99.90
2012;DHT22;1009;51.436;6.972;2023-04-15T15:43:06;9.40;99.90
2012;DHT22;1009;51.436;6.972;2023-04-15T15:45:33;9.40;99.90
2012;DHT22;1009;51.436;6.972;2023-04-15T15:48:01;9.30;99.90
2012;DHT22;1009;51.436;6.972;2023-04-15T15:50:27;9.30;99.90
2012;DHT22;1009;51.436;6.972;2023-04-15T15:52:55;9.30;99.90
2012;DHT22;1009;51.436;6.972;2023-04-15T15:55:23;9.20;99.90
2012;DHT22;1009;51.436;6.972;2023-04-15T15:57:51;9.30;99.90
2012;DHT22;1009;51.436;6.972;2023-04-15T16:00:18;9.30;99.90
2012;DHT22;1009;51.436;6.972;2023-04-15T16:02:45;9.30;99.90
2012;DHT22;1009;51.436;6.972;2023-04-15T16:05:18;9.30;99.90
2012;DHT22;1009;51.436;6.972;2023-04-15T16:11:03;9.20;99.90
2012;DHT22;1009;51.436;6.972;2023-04-15T16:13:29;9.20;99.90
2012;DHT22;1009;51.436;6.972;2023-04-15T16:16:49;9.20;99.90
2012;DHT22;1009;51.436;6.972;2023-04-15T16:19:13;9.30;99.90
2012;DHT22;1009;51.436;6.972;2023-04-15T16:21:41;9.30;99.90
2012;DHT22;1009;51.436;6.972;2023-04-15T16:24:08;9.30;99.90